sensor_id;sensor_type;location;lat;lon;timestamp;P1;durP1;ratioP1;P2;durP2;ratioP2
4080;SDS011;2055;50.074;8.436;2023-05-13T00:02:18;0.40;;;0.40;;
4080;SDS011;2055;50.074;8.436;2023-05-13T00:04:43;0.40;;;0.40;;
4080;SDS011;2055;50.074;8.436;2023-05-13T00:07:09;0.47;;;0.43;;
4080;SDS011;2055;50.074;8.436;2023-05-13T00:09:35;0.40;;;0.40;;
4080;SDS011;2055;50.074;8.436;2023-05-13T00:12:02;0.40;;;0.40;;
4080;SDS011;2055;50.074;8.436;2023-05-13T00:14:27;0.40;;;0.40;;
4080;SDS011;2055;50.074;8.436;2023-05-13T00:16:53;0.77;;;0.67;;
4080;SDS011;2055;50.074;8.436;2023-05-13T00:19:19;2.23;;;0.57;;
4080;SDS011;2055;50.074;8.436;2023-05-13T00:21:45;0.60;;;0.50;;
4080;SDS011;2055;50.074;8.436;2023-05-13T00:24:10;0.40;;;0.40;;
4080;SDS011;2055;50.074;8.436;2023-05-13T00:26:36;0.40;;;0.40;;
4080;SDS011;2055;50.074;8.436;2023-05-13T00:29:02;0.60;;;0.50;;
4080;SDS011;2055;50.074;8.436;2023-05-13T00:31:27;0.40;;;0.40;;
4080;SDS011;2055;50.074;8.436;2023-05-13T00:33:53;0.40;;;0.40;;
4080;SDS011;2055;50.074;8.436;2023-05-13T00:36:18;0.40;;;0.40;;
4080;SDS011;2055;50.074;8.436;2023-05-13T00:38:44;0.40;;;0.40;;
4080;SDS011;2055;50.074;8.436;2023-05-13T00:41:10;0.60;;;0.50;;
4080;SDS011;2055;50.074;8.436;2023-05-13T00:43:36;0.40;;;0.40;;
4080;SDS011;2055;50.074;8.436;2023-05-13T00:46:01;0.40;;;0.40;;
4080;SDS011;2055;50.074;8.436;2023-05-13T00:48:27;0.40;;;0.40;;
4080;SDS011;2055;50.074;8.436;2023-05-13T00:50:53;0.60;;;0.50;;
4080;SDS011;2055;50.074;8.436;2023-05-13T00:53:19;0.40;;;0.40;;
4080;SDS011;2055;50.074;8.436;2023-05-13T00:55:45;0.60;;;0.50;;
4080;SDS011;2055;50.074;8.436;2023-05-13T00:58:11;0.53;;;0.47;;
4080;SDS011;2055;50.074;8.436;2023-05-13T01:00:46;0.70;;;0.60;;
4080;SDS011;2055;50.074;8.436;2023-05-13T01:03:26;0.60;;;0.50;;
4080;SDS011;2055;50.074;8.436;2023-05-13T01:06:03;0.65;;;0.55;;
4080;SDS011;2055;50.074;8.436;2023-05-13T01:08:49;0.40;;;0.40;;
4080;SDS011;2055;50.074;8.436;2023-05-13T01:11:34;0.40;;;0.40;;
4080;SDS011;2055;50.074;8.436;2023-05-13T01:14:13;0.40;;;0.40;;
4080;SDS011;2055;50.074;8.436;2023-05-13T01:16:52;0.55;;;0.47;;
4080;SDS011;2055;50.074;8.436;2023-05-13T01:19:34;0.60;;;0.50;;
4080;SDS011;2055;50.074;8.436;2023-05-13T01:21:59;0.60;;;0.50;;
4080;SDS011;2055;50.074;8.436;2023-05-13T01:24:25;0.40;;;0.40;;
4080;SDS011;2055;50.074;8.436;2023-05-13T01:26:51;0.40;;;0.40;;
4080;SDS011;2055;50.074;8.436;2023-05-13T01:29:16;0.40;;;0.40;;
4080;SDS011;2055;50.074;8.436;2023-05-13T01:31:42;0.40;;;0.40;;
4080;SDS011;2055;50.074;8.436;2023-05-13T01:34:10;0.40;;;0.40;;
4080;SDS011;2055;50.074;8.436;2023-05-13T01:36:38;0.40;;;0.40;;
4080;SDS011;2055;50.074;8.436;2023-05-13T01:39:04;0.45;;;0.43;;
4080;SDS011;2055;50.074;8.436;2023-05-13T01:41:30;0.40;;;0.40;;
4080;SDS011;2055;50.074;8.436;2023-05-13T01:43:56;0.60;;;0.50;;
4080;SDS011;2055;50.074;8.436;2023-05-13T01:46:21;0.63;;;0.57;;
4080;SDS011;2055;50.074;8.436;2023-05-13T01:48:47;0.60;;;0.50;;
4080;SDS011;2055;50.074;8.436;2023-05-13T01:51:12;0.60;;;0.50;;
4080;SDS011;2055;50.074;8.436;2023-05-13T01:53:38;0.40;;;0.40;;
4080;SDS011;2055;50.074;8.436;2023-05-13T01:56:04;0.60;;;0.50;;
4080;SDS011;2055;50.074;8.436;2023-05-13T01:58:32;0.60;;;0.50;;
4080;SDS011;2055;50.074;8.436;2023-05-13T02:00:58;0.40;;;0.40;;
4080;SDS011;2055;50.074;8.436;2023-05-13T02:03:24;0.60;;;0.50;;
4080;SDS011;2055;50.074;8.436;2023-05-13T02:05:50;0.47;;;0.43;;
4080;SDS011;2055;50.074;8.436;2023-05-13T02:08:15;1.37;;;1.27;;
4080;SDS011;2055;50.074;8.436;2023-05-13T02:10:41;0.93;;;0.83;;
4080;SDS011;2055;50.074;8.436;2023-05-13T02:13:07;0.60;;;0.50;;
4080;SDS011;2055;50.074;8.436;2023-05-13T02:15:32;0.40;;;0.40;;
4080;SDS011;2055;50.074;8.436;2023-05-13T02:17:58;0.70;;;0.60;;
4080;SDS011;2055;50.074;8.436;2023-05-13T02:20:23;0.60;;;0.50;;
4080;SDS011;2055;50.074;8.436;2023-05-13T02:22:50;0.60;;;0.50;;
4080;SDS011;2055;50.074;8.436;2023-05-13T02:25:15;0.40;;;0.40;;
4080;SDS011;2055;50.074;8.436;2023-05-13T02:27:41;0.60;;;0.50;;
4080;SDS011;2055;50.074;8.436;2023-05-13T02:30:07;0.40;;;0.40;;
4080;SDS011;2055;50.074;8.436;2023-05-13T02:32:32;0.60;;;0.50;;
4080;SDS011;2055;50.074;8.436;2023-05-13T02:34:58;1.00;;;0.93;;
4080;SDS011;2055;50.074;8.436;2023-05-13T02:37:23;0.53;;;0.47;;
4080;SDS011;2055;50.074;8.436;2023-05-13T02:39:49;0.60;;;0.50;;
4080;SDS011;2055;50.074;8.436;2023-05-13T02:42:14;0.40;;;0.40;;
4080;SDS011;2055;50.074;8.436;2023-05-13T02:44:40;0.53;;;0.47;;
4080;SDS011;2055;50.074;8.436;2023-05-13T02:47:05;0.60;;;0.50;;
4080;SDS011;2055;50.074;8.436;2023-05-13T02:49:31;0.60;;;0.50;;
4080;SDS011;2055;50.074;8.436;2023-05-13T02:51:56;0.80;;;0.70;;
4080;SDS011;2055;50.074;8.436;2023-05-13T02:54:22;0.80;;;0.70;;
4080;SDS011;2055;50.074;8.436;2023-05-13T02:56:47;0.60;;;0.50;;
4080;SDS011;2055;50.074;8.436;2023-05-13T02:59:13;0.60;;;0.50;;
4080;SDS011;2055;50.074;8.436;2023-05-13T03:01:38;0.60;;;0.50;;
4080;SDS011;2055;50.074;8.436;2023-05-13T03:04:05;0.60;;;0.50;;
4080;SDS011;2055;50.074;8.436;2023-05-13T03:06:30;1.27;;;1.17;;
4080;SDS011;2055;50.074;8.436;2023-05-13T03:08:56;0.60;;;0.50;;
4080;SDS011;2055;50.074;8.436;2023-05-13T03:11:22;0.60;;;0.50;;
4080;SDS011;2055;50.074;8.436;2023-05-13T03:13:47;0.60;;;0.50;;
4080;SDS011;2055;50.074;8.436;2023-05-13T03:16:13;0.60;;;0.50;;
4080;SDS011;2055;50.074;8.436;2023-05-13T03:18:38;0.70;;;0.60;;
4080;SDS011;2055;50.074;8.436;2023-05-13T03:21:04;0.60;;;0.50;;
4080;SDS011;2055;50.074;8.436;2023-05-13T03:23:30;0.70;;;0.60;;
4080;SDS011;2055;50.074;8.436;2023-05-13T03:26:12;0.60;;;0.50;;
4080;SDS011;2055;50.074;8.436;2023-05-13T03:28:37;0.60;;;0.50;;
4080;SDS011;2055;50.074;8.436;2023-05-13T03:31:03;0.70;;;0.60;;
4080;SDS011;2055;50.074;8.436;2023-05-13T03:33:28;0.60;;;0.50;;
4080;SDS011;2055;50.074;8.436;2023-05-13T03:35:54;0.80;;;0.70;;
4080;SDS011;2055;50.074;8.436;2023-05-13T03:38:19;0.60;;;0.50;;
4080;SDS011;2055;50.074;8.436;2023-05-13T03:40:45;0.40;;;0.40;;
4080;SDS011;2055;50.074;8.436;2023-05-13T03:43:11;0.60;;;0.50;;
4080;SDS011;2055;50.074;8.436;2023-05-13T03:45:36;0.53;;;0.47;;
4080;SDS011;2055;50.074;8.436;2023-05-13T03:48:02;0.70;;;0.60;;
4080;SDS011;2055;50.074;8.436;2023-05-13T03:50:27;0.70;;;0.60;;
4080;SDS011;2055;50.074;8.436;2023-05-13T03:52:53;0.60;;;0.50;;
4080;SDS011;2055;50.074;8.436;2023-05-13T03:55:20;0.80;;;0.70;;
4080;SDS011;2055;50.074;8.436;2023-05-13T03:57:46;0.90;;;0.80;;
4080;SDS011;2055;50.074;8.436;2023-05-13T04:00:13;0.70;;;0.60;;
4080;SDS011;2055;50.074;8.436;2023-05-13T04:02:39;1.02;;;0.93;;
4080;SDS011;2055;50.074;8.436;2023-05-13T04:05:04;0.70;;;0.60;;
4080;SDS011;2055;50.074;8.436;2023-05-13T04:07:30;0.70;;;0.60;;
4080;SDS011;2055;50.074;8.436;2023-05-13T04:09:56;0.60;;;0.50;;
4080;SDS011;2055;50.074;8.436;2023-05-13T04:12:21;0.70;;;0.60;;
4080;SDS011;2055;50.074;8.436;2023-05-13T04:14:47;0.70;;;0.60;;
4080;SDS011;2055;50.074;8.436;2023-05-13T04:17:12;0.60;;;0.50;;
4080;SDS011;2055;50.074;8.436;2023-05-13T04:19:38;0.60;;;0.50;;
4080;SDS011;2055;50.074;8.436;2023-05-13T04:22:03;0.63;;;0.53;;
4080;SDS011;2055;50.074;8.436;2023-05-13T04:24:29;0.80;;;0.73;;
4080;SDS011;2055;50.074;8.436;2023-05-13T04:26:55;1.20;;;1.10;;
4080;SDS011;2055;50.074;8.436;2023-05-13T04:29:21;3.53;;;3.00;;
4080;SDS011;2055;50.074;8.436;2023-05-13T04:31:46;0.60;;;0.50;;
4080;SDS011;2055;50.074;8.436;2023-05-13T04:34:11;0.70;;;0.60;;
4080;SDS011;2055;50.074;8.436;2023-05-13T04:36:37;0.60;;;0.50;;
4080;SDS011;2055;50.074;8.436;2023-05-13T04:39:02;0.70;;;0.60;;
4080;SDS011;2055;50.074;8.436;2023-05-13T04:41:28;0.87;;;0.77;;
4080;SDS011;2055;50.074;8.436;2023-05-13T04:43:53;1.03;;;0.93;;
4080;SDS011;2055;50.074;8.436;2023-05-13T04:46:19;0.60;;;0.50;;
4080;SDS011;2055;50.074;8.436;2023-05-13T04:48:44;0.70;;;0.60;;
4080;SDS011;2055;50.074;8.436;2023-05-13T04:51:12;0.70;;;0.60;;
4080;SDS011;2055;50.074;8.436;2023-05-13T04:53:39;0.90;;;0.80;;
4080;SDS011;2055;50.074;8.436;2023-05-13T04:56:04;0.70;;;0.60;;
4080;SDS011;2055;50.074;8.436;2023-05-13T04:58:30;0.70;;;0.60;;
4080;SDS011;2055;50.074;8.436;2023-05-13T05:00:56;0.80;;;0.70;;
4080;SDS011;2055;50.074;8.436;2023-05-13T05:03:21;0.70;;;0.60;;
4080;SDS011;2055;50.074;8.436;2023-05-13T05:05:47;0.70;;;0.60;;
4080;SDS011;2055;50.074;8.436;2023-05-13T05:08:13;0.60;;;0.50;;
4080;SDS011;2055;50.074;8.436;2023-05-13T05:10:38;4.93;;;1.43;;
4080;SDS011;2055;50.074;8.436;2023-05-13T05:13:04;0.70;;;0.60;;
4080;SDS011;2055;50.074;8.436;2023-05-13T05:15:29;0.70;;;0.60;;
4080;SDS011;2055;50.074;8.436;2023-05-13T05:17:55;0.70;;;0.60;;
4080;SDS011;2055;50.074;8.436;2023-05-13T05:20:20;0.60;;;0.50;;
4080;SDS011;2055;50.074;8.436;2023-05-13T05:22:48;0.70;;;0.60;;
4080;SDS011;2055;50.074;8.436;2023-05-13T05:25:14;0.73;;;0.63;;
4080;SDS011;2055;50.074;8.436;2023-05-13T05:27:40;0.70;;;0.60;;
4080;SDS011;2055;50.074;8.436;2023-05-13T05:30:05;0.63;;;0.53;;
4080;SDS011;2055;50.074;8.436;2023-05-13T05:32:33;0.60;;;0.50;;
4080;SDS011;2055;50.074;8.436;2023-05-13T05:34:58;0.53;;;0.47;;
4080;SDS011;2055;50.074;8.436;2023-05-13T05:37:26;0.60;;;0.50;;
4080;SDS011;2055;50.074;8.436;2023-05-13T05:39:52;0.60;;;0.50;;
4080;SDS011;2055;50.074;8.436;2023-05-13T05:42:17;0.60;;;0.50;;
4080;SDS011;2055;50.074;8.436;2023-05-13T05:44:43;0.60;;;0.50;;
4080;SDS011;2055;50.074;8.436;2023-05-13T05:47:08;0.97;;;0.90;;
4080;SDS011;2055;50.074;8.436;2023-05-13T05:49:34;0.70;;;0.60;;
4080;SDS011;2055;50.074;8.436;2023-05-13T05:52:00;0.90;;;0.87;;
4080;SDS011;2055;50.074;8.436;2023-05-13T05:54:26;0.70;;;0.60;;
4080;SDS011;2055;50.074;8.436;2023-05-13T05:56:52;0.70;;;0.60;;
4080;SDS011;2055;50.074;8.436;2023-05-13T05:59:17;0.73;;;0.63;;
4080;SDS011;2055;50.074;8.436;2023-05-13T06:01:43;0.70;;;0.60;;
4080;SDS011;2055;50.074;8.436;2023-05-13T06:04:08;0.83;;;0.73;;
4080;SDS011;2055;50.074;8.436;2023-05-13T06:06:34;0.80;;;0.70;;
4080;SDS011;2055;50.074;8.436;2023-05-13T06:09:00;0.90;;;0.80;;
4080;SDS011;2055;50.074;8.436;2023-05-13T06:11:25;0.70;;;0.60;;
4080;SDS011;2055;50.074;8.436;2023-05-13T06:13:52;0.70;;;0.60;;
4080;SDS011;2055;50.074;8.436;2023-05-13T06:16:18;0.80;;;0.70;;
4080;SDS011;2055;50.074;8.436;2023-05-13T06:18:43;1.27;;;1.27;;
4080;SDS011;2055;50.074;8.436;2023-05-13T06:21:09;0.70;;;0.60;;
4080;SDS011;2055;50.074;8.436;2023-05-13T06:23:34;0.60;;;0.50;;
4080;SDS011;2055;50.074;8.436;2023-05-13T06:26:00;0.70;;;0.60;;
4080;SDS011;2055;50.074;8.436;2023-05-13T06:28:25;0.70;;;0.60;;
4080;SDS011;2055;50.074;8.436;2023-05-13T06:30:51;0.67;;;0.57;;
4080;SDS011;2055;50.074;8.436;2023-05-13T06:33:17;0.70;;;0.60;;
4080;SDS011;2055;50.074;8.436;2023-05-13T06:35:43;1.00;;;0.90;;
4080;SDS011;2055;50.074;8.436;2023-05-13T06:38:12;1.20;;;1.10;;
4080;SDS011;2055;50.074;8.436;2023-05-13T06:40:38;1.80;;;1.70;;
4080;SDS011;2055;50.074;8.436;2023-05-13T06:43:03;0.90;;;0.80;;
4080;SDS011;2055;50.074;8.436;2023-05-13T06:45:29;0.97;;;0.87;;
4080;SDS011;2055;50.074;8.436;2023-05-13T06:47:54;1.43;;;1.33;;
4080;SDS011;2055;50.074;8.436;2023-05-13T06:50:20;0.80;;;0.70;;
4080;SDS011;2055;50.074;8.436;2023-05-13T06:52:46;0.90;;;0.80;;
4080;SDS011;2055;50.074;8.436;2023-05-13T06:55:11;1.27;;;1.17;;
4080;SDS011;2055;50.074;8.436;2023-05-13T06:57:37;1.00;;;0.90;;
4080;SDS011;2055;50.074;8.436;2023-05-13T07:00:04;0.97;;;0.87;;
4080;SDS011;2055;50.074;8.436;2023-05-13T07:02:30;1.00;;;0.90;;
4080;SDS011;2055;50.074;8.436;2023-05-13T07:04:55;3.13;;;1.77;;
4080;SDS011;2055;50.074;8.436;2023-05-13T07:07:21;1.03;;;0.93;;
4080;SDS011;2055;50.074;8.436;2023-05-13T07:09:47;1.00;;;0.90;;
4080;SDS011;2055;50.074;8.436;2023-05-13T07:12:12;1.43;;;1.23;;
4080;SDS011;2055;50.074;8.436;2023-05-13T07:14:38;1.20;;;1.10;;
4080;SDS011;2055;50.074;8.436;2023-05-13T07:17:03;1.57;;;1.47;;
4080;SDS011;2055;50.074;8.436;2023-05-13T07:19:29;1.20;;;1.10;;
4080;SDS011;2055;50.074;8.436;2023-05-13T07:21:55;1.47;;;1.37;;
4080;SDS011;2055;50.074;8.436;2023-05-13T07:24:20;0.90;;;0.80;;
4080;SDS011;2055;50.074;8.436;2023-05-13T07:26:46;0.90;;;0.90;;
4080;SDS011;2055;50.074;8.436;2023-05-13T07:29:11;1.63;;;1.53;;
4080;SDS011;2055;50.074;8.436;2023-05-13T07:31:37;1.10;;;1.00;;
4080;SDS011;2055;50.074;8.436;2023-05-13T07:34:03;0.70;;;0.60;;
4080;SDS011;2055;50.074;8.436;2023-05-13T07:36:28;0.80;;;0.70;;
4080;SDS011;2055;50.074;8.436;2023-05-13T07:38:54;0.70;;;0.60;;
4080;SDS011;2055;50.074;8.436;2023-05-13T07:41:19;0.87;;;0.77;;
4080;SDS011;2055;50.074;8.436;2023-05-13T07:43:45;0.80;;;0.70;;
4080;SDS011;2055;50.074;8.436;2023-05-13T07:46:11;1.07;;;0.97;;
4080;SDS011;2055;50.074;8.436;2023-05-13T07:48:36;2.70;;;2.50;;
4080;SDS011;2055;50.074;8.436;2023-05-13T07:51:02;0.97;;;0.87;;
4080;SDS011;2055;50.074;8.436;2023-05-13T07:53:27;7.80;;;1.70;;
4080;SDS011;2055;50.074;8.436;2023-05-13T07:55:53;2.53;;;1.60;;
4080;SDS011;2055;50.074;8.436;2023-05-13T07:58:18;1.33;;;1.23;;
4080;SDS011;2055;50.074;8.436;2023-05-13T08:00:44;1.50;;;1.40;;
4080;SDS011;2055;50.074;8.436;2023-05-13T08:03:10;1.30;;;1.20;;
4080;SDS011;2055;50.074;8.436;2023-05-13T08:05:36;1.43;;;1.20;;
4080;SDS011;2055;50.074;8.436;2023-05-13T08:08:01;1.00;;;0.90;;
4080;SDS011;2055;50.074;8.436;2023-05-13T08:10:28;1.40;;;1.30;;
4080;SDS011;2055;50.074;8.436;2023-05-13T08:12:54;2.50;;;2.30;;
4080;SDS011;2055;50.074;8.436;2023-05-13T08:15:21;0.90;;;0.80;;
4080;SDS011;2055;50.074;8.436;2023-05-13T08:17:47;1.60;;;1.50;;
4080;SDS011;2055;50.074;8.436;2023-05-13T08:20:13;0.73;;;0.63;;
4080;SDS011;2055;50.074;8.436;2023-05-13T08:22:39;0.90;;;0.80;;
4080;SDS011;2055;50.074;8.436;2023-05-13T08:25:05;1.17;;;1.07;;
4080;SDS011;2055;50.074;8.436;2023-05-13T08:27:30;0.80;;;0.70;;
4080;SDS011;2055;50.074;8.436;2023-05-13T08:29:56;0.80;;;0.70;;
4080;SDS011;2055;50.074;8.436;2023-05-13T08:32:21;0.80;;;0.70;;
4080;SDS011;2055;50.074;8.436;2023-05-13T08:34:47;1.03;;;0.93;;
4080;SDS011;2055;50.074;8.436;2023-05-13T08:37:12;2.20;;;2.00;;
4080;SDS011;2055;50.074;8.436;2023-05-13T08:39:38;0.80;;;0.70;;
4080;SDS011;2055;50.074;8.436;2023-05-13T08:42:03;1.80;;;1.53;;
4080;SDS011;2055;50.074;8.436;2023-05-13T08:44:32;1.20;;;1.10;;
4080;SDS011;2055;50.074;8.436;2023-05-13T08:47:06;1.63;;;1.47;;
4080;SDS011;2055;50.074;8.436;2023-05-13T08:49:39;0.90;;;0.80;;
4080;SDS011;2055;50.074;8.436;2023-05-13T08:52:05;1.37;;;1.27;;
4080;SDS011;2055;50.074;8.436;2023-05-13T08:54:30;2.33;;;1.20;;
4080;SDS011;2055;50.074;8.436;2023-05-13T08:56:56;2.17;;;2.00;;
4080;SDS011;2055;50.074;8.436;2023-05-13T08:59:22;1.67;;;1.20;;
4080;SDS011;2055;50.074;8.436;2023-05-13T09:01:48;0.90;;;0.80;;
4080;SDS011;2055;50.074;8.436;2023-05-13T09:04:14;1.87;;;1.57;;
4080;SDS011;2055;50.074;8.436;2023-05-13T09:06:40;1.63;;;1.53;;
4080;SDS011;2055;50.074;8.436;2023-05-13T09:09:06;2.00;;;1.40;;
4080;SDS011;2055;50.074;8.436;2023-05-13T09:11:32;1.37;;;1.27;;
4080;SDS011;2055;50.074;8.436;2023-05-13T09:13:58;0.70;;;0.60;;
4080;SDS011;2055;50.074;8.436;2023-05-13T09:16:26;0.80;;;0.70;;
4080;SDS011;2055;50.074;8.436;2023-05-13T09:18:59;1.93;;;1.80;;
4080;SDS011;2055;50.074;8.436;2023-05-13T09:21:28;1.40;;;1.30;;
4080;SDS011;2055;50.074;8.436;2023-05-13T09:24:08;1.00;;;0.90;;
4080;SDS011;2055;50.074;8.436;2023-05-13T09:26:34;1.00;;;0.90;;
4080;SDS011;2055;50.074;8.436;2023-05-13T09:31:45;1.10;;;1.00;;
4080;SDS011;2055;50.074;8.436;2023-05-13T09:34:13;1.50;;;1.40;;
4080;SDS011;2055;50.074;8.436;2023-05-13T09:36:39;1.60;;;1.50;;
4080;SDS011;2055;50.074;8.436;2023-05-13T09:39:05;1.00;;;0.90;;
4080;SDS011;2055;50.074;8.436;2023-05-13T09:41:31;3.73;;;1.37;;
4080;SDS011;2055;50.074;8.436;2023-05-13T09:44:00;1.10;;;1.00;;
4080;SDS011;2055;50.074;8.436;2023-05-13T09:46:27;1.23;;;1.13;;
4080;SDS011;2055;50.074;8.436;2023-05-13T09:48:56;1.13;;;1.10;;
4080;SDS011;2055;50.074;8.436;2023-05-13T09:51:26;1.13;;;1.03;;
4080;SDS011;2055;50.074;8.436;2023-05-13T09:53:55;1.00;;;0.90;;
4080;SDS011;2055;50.074;8.436;2023-05-13T09:56:27;1.63;;;1.53;;
4080;SDS011;2055;50.074;8.436;2023-05-13T09:58:54;1.27;;;1.20;;
4080;SDS011;2055;50.074;8.436;2023-05-13T10:01:20;1.43;;;1.33;;
4080;SDS011;2055;50.074;8.436;2023-05-13T10:03:46;1.53;;;1.43;;
4080;SDS011;2055;50.074;8.436;2023-05-13T10:06:14;2.23;;;2.13;;
4080;SDS011;2055;50.074;8.436;2023-05-13T10:08:41;2.17;;;2.03;;
4080;SDS011;2055;50.074;8.436;2023-05-13T10:11:11;1.00;;;1.00;;
4080;SDS011;2055;50.074;8.436;2023-05-13T10:13:39;1.37;;;1.27;;
4080;SDS011;2055;50.074;8.436;2023-05-13T10:16:06;2.73;;;2.53;;
4080;SDS011;2055;50.074;8.436;2023-05-13T10:18:33;1.83;;;1.40;;
4080;SDS011;2055;50.074;8.436;2023-05-13T10:20:59;1.30;;;1.20;;
4080;SDS011;2055;50.074;8.436;2023-05-13T10:23:25;1.03;;;0.93;;
4080;SDS011;2055;50.074;8.436;2023-05-13T10:25:52;1.17;;;1.07;;
4080;SDS011;2055;50.074;8.436;2023-05-13T10:28:19;1.37;;;1.27;;
4080;SDS011;2055;50.074;8.436;2023-05-13T10:30:44;1.20;;;1.10;;
4080;SDS011;2055;50.074;8.436;2023-05-13T10:33:11;1.43;;;1.33;;
4080;SDS011;2055;50.074;8.436;2023-05-13T10:35:39;14.93;;;3.80;;
4080;SDS011;2055;50.074;8.436;2023-05-13T10:40:58;1.57;;;1.47;;
4080;SDS011;2055;50.074;8.436;2023-05-13T10:43:32;2.07;;;1.93;;
4080;SDS011;2055;50.074;8.436;2023-05-13T10:46:06;1.60;;;1.50;;
4080;SDS011;2055;50.074;8.436;2023-05-13T10:48:38;3.50;;;1.30;;
4080;SDS011;2055;50.074;8.436;2023-05-13T10:51:14;2.80;;;2.03;;
4080;SDS011;2055;50.074;8.436;2023-05-13T10:56:14;1.47;;;1.37;;
4080;SDS011;2055;50.074;8.436;2023-05-13T10:58:43;3.73;;;1.60;;
4080;SDS011;2055;50.074;8.436;2023-05-13T11:01:29;1.30;;;1.20;;
4080;SDS011;2055;50.074;8.436;2023-05-13T11:04:11;1.90;;;1.83;;
4080;SDS011;2055;50.074;8.436;2023-05-13T11:06:40;1.50;;;1.40;;
4080;SDS011;2055;50.074;8.436;2023-05-13T11:09:07;1.90;;;1.80;;
4080;SDS011;2055;50.074;8.436;2023-05-13T11:11:36;1.80;;;1.70;;
4080;SDS011;2055;50.074;8.436;2023-05-13T11:14:21;2.07;;;1.93;;
4080;SDS011;2055;50.074;8.436;2023-05-13T11:19:31;2.30;;;1.73;;
4080;SDS011;2055;50.074;8.436;2023-05-13T11:24:42;1.53;;;1.43;;
4080;SDS011;2055;50.074;8.436;2023-05-13T11:27:15;1.60;;;1.50;;
4080;SDS011;2055;50.074;8.436;2023-05-13T11:29:54;1.30;;;1.20;;
4080;SDS011;2055;50.074;8.436;2023-05-13T11:35:37;2.90;;;2.63;;
4080;SDS011;2055;50.074;8.436;2023-05-13T11:38:02;3.17;;;1.93;;
4080;SDS011;2055;50.074;8.436;2023-05-13T11:40:28;1.00;;;0.90;;
4080;SDS011;2055;50.074;8.436;2023-05-13T11:42:55;2.07;;;1.93;;
4080;SDS011;2055;50.074;8.436;2023-05-13T11:45:23;1.00;;;0.90;;
4080;SDS011;2055;50.074;8.436;2023-05-13T11:47:49;1.20;;;1.10;;
4080;SDS011;2055;50.074;8.436;2023-05-13T11:50:20;1.50;;;1.40;;
4080;SDS011;2055;50.074;8.436;2023-05-13T11:52:57;1.20;;;1.10;;
4080;SDS011;2055;50.074;8.436;2023-05-13T11:55:26;1.60;;;1.50;;
4080;SDS011;2055;50.074;8.436;2023-05-13T11:58:01;2.43;;;2.23;;
4080;SDS011;2055;50.074;8.436;2023-05-13T12:00:28;1.60;;;1.50;;
4080;SDS011;2055;50.074;8.436;2023-05-13T12:02:58;7.90;;;3.80;;
4080;SDS011;2055;50.074;8.436;2023-05-13T12:05:25;1.30;;;1.20;;
4080;SDS011;2055;50.074;8.436;2023-05-13T12:07:53;1.60;;;1.50;;
4080;SDS011;2055;50.074;8.436;2023-05-13T12:10:21;1.20;;;1.10;;
4080;SDS011;2055;50.074;8.436;2023-05-13T12:12:47;1.40;;;1.30;;
4080;SDS011;2055;50.074;8.436;2023-05-13T12:15:17;1.50;;;1.40;;
4080;SDS011;2055;50.074;8.436;2023-05-13T12:17:43;3.03;;;1.97;;
4080;SDS011;2055;50.074;8.436;2023-05-13T12:20:13;1.97;;;1.87;;
4080;SDS011;2055;50.074;8.436;2023-05-13T12:27:56;1.30;;;1.20;;
4080;SDS011;2055;50.074;8.436;2023-05-13T12:30:22;1.50;;;1.40;;
4080;SDS011;2055;50.074;8.436;2023-05-13T12:32:48;1.73;;;1.63;;
4080;SDS011;2055;50.074;8.436;2023-05-13T12:35:13;1.53;;;1.43;;
4080;SDS011;2055;50.074;8.436;2023-05-13T12:37:39;1.30;;;1.20;;
4080;SDS011;2055;50.074;8.436;2023-05-13T12:40:09;1.20;;;1.10;;
4080;SDS011;2055;50.074;8.436;2023-05-13T12:42:35;1.63;;;1.53;;
4080;SDS011;2055;50.074;8.436;2023-05-13T12:45:01;2.90;;;2.70;;
4080;SDS011;2055;50.074;8.436;2023-05-13T12:47:27;1.30;;;1.20;;
4080;SDS011;2055;50.074;8.436;2023-05-13T12:49:56;6.80;;;2.27;;
4080;SDS011;2055;50.074;8.436;2023-05-13T12:52:22;1.50;;;1.40;;
4080;SDS011;2055;50.074;8.436;2023-05-13T12:54:48;1.90;;;1.80;;
4080;SDS011;2055;50.074;8.436;2023-05-13T12:57:15;1.30;;;1.20;;
4080;SDS011;2055;50.074;8.436;2023-05-13T12:59:42;2.60;;;2.40;;
4080;SDS011;2055;50.074;8.436;2023-05-13T13:02:09;1.20;;;1.10;;
4080;SDS011;2055;50.074;8.436;2023-05-13T13:04:35;2.40;;;2.00;;
4080;SDS011;2055;50.074;8.436;2023-05-13T13:07:01;2.07;;;1.93;;
4080;SDS011;2055;50.074;8.436;2023-05-13T13:09:26;3.33;;;1.83;;
4080;SDS011;2055;50.074;8.436;2023-05-13T13:11:52;2.20;;;2.00;;
4080;SDS011;2055;50.074;8.436;2023-05-13T13:14:17;1.50;;;1.40;;
4080;SDS011;2055;50.074;8.436;2023-05-13T13:16:43;5.40;;;2.00;;
4080;SDS011;2055;50.074;8.436;2023-05-13T13:19:08;2.00;;;1.90;;
4080;SDS011;2055;50.074;8.436;2023-05-13T13:21:34;2.07;;;1.93;;
4080;SDS011;2055;50.074;8.436;2023-05-13T13:23:59;2.00;;;1.90;;
4080;SDS011;2055;50.074;8.436;2023-05-13T13:26:25;2.30;;;2.10;;
4080;SDS011;2055;50.074;8.436;2023-05-13T13:28:51;2.20;;;2.00;;
4080;SDS011;2055;50.074;8.436;2023-05-13T13:31:16;1.80;;;1.70;;
4080;SDS011;2055;50.074;8.436;2023-05-13T13:33:42;1.83;;;1.73;;
4080;SDS011;2055;50.074;8.436;2023-05-13T13:36:07;1.80;;;1.70;;
4080;SDS011;2055;50.074;8.436;2023-05-13T13:38:33;1.70;;;1.60;;
4080;SDS011;2055;50.074;8.436;2023-05-13T13:40:58;2.63;;;2.37;;
4080;SDS011;2055;50.074;8.436;2023-05-13T13:43:24;1.60;;;1.50;;
4080;SDS011;2055;50.074;8.436;2023-05-13T13:45:50;1.80;;;1.70;;
4080;SDS011;2055;50.074;8.436;2023-05-13T13:48:15;1.20;;;1.10;;
4080;SDS011;2055;50.074;8.436;2023-05-13T13:50:41;1.10;;;1.00;;
4080;SDS011;2055;50.074;8.436;2023-05-13T13:53:06;1.50;;;1.40;;
4080;SDS011;2055;50.074;8.436;2023-05-13T13:55:32;1.60;;;1.50;;
4080;SDS011;2055;50.074;8.436;2023-05-13T13:57:57;3.57;;;1.87;;
4080;SDS011;2055;50.074;8.436;2023-05-13T14:00:22;2.27;;;2.07;;
4080;SDS011;2055;50.074;8.436;2023-05-13T14:02:48;1.67;;;1.57;;
4080;SDS011;2055;50.074;8.436;2023-05-13T14:05:14;2.80;;;2.60;;
4080;SDS011;2055;50.074;8.436;2023-05-13T14:07:40;2.30;;;2.10;;
4080;SDS011;2055;50.074;8.436;2023-05-13T14:10:05;1.80;;;1.70;;
4080;SDS011;2055;50.074;8.436;2023-05-13T14:12:32;1.80;;;1.70;;
4080;SDS011;2055;50.074;8.436;2023-05-13T14:14:59;2.20;;;2.00;;
4080;SDS011;2055;50.074;8.436;2023-05-13T14:17:25;1.83;;;1.73;;
4080;SDS011;2055;50.074;8.436;2023-05-13T14:19:50;1.77;;;1.67;;
4080;SDS011;2055;50.074;8.436;2023-05-13T14:22:18;2.13;;;1.97;;
4080;SDS011;2055;50.074;8.436;2023-05-13T14:24:43;2.47;;;2.27;;
4080;SDS011;2055;50.074;8.436;2023-05-13T14:27:09;2.00;;;1.90;;
4080;SDS011;2055;50.074;8.436;2023-05-13T14:29:34;1.70;;;1.60;;
4080;SDS011;2055;50.074;8.436;2023-05-13T14:32:00;1.33;;;1.23;;
4080;SDS011;2055;50.074;8.436;2023-05-13T14:34:27;1.50;;;1.40;;
4080;SDS011;2055;50.074;8.436;2023-05-13T14:36:53;1.20;;;1.10;;
4080;SDS011;2055;50.074;8.436;2023-05-13T14:39:18;1.53;;;1.43;;
4080;SDS011;2055;50.074;8.436;2023-05-13T14:41:44;1.40;;;1.30;;
4080;SDS011;2055;50.074;8.436;2023-05-13T14:44:12;1.70;;;1.60;;
4080;SDS011;2055;50.074;8.436;2023-05-13T14:46:38;2.23;;;2.03;;
4080;SDS011;2055;50.074;8.436;2023-05-13T14:49:05;2.80;;;2.60;;
4080;SDS011;2055;50.074;8.436;2023-05-13T14:51:32;1.60;;;1.50;;
4080;SDS011;2055;50.074;8.436;2023-05-13T14:53:58;1.70;;;1.60;;
4080;SDS011;2055;50.074;8.436;2023-05-13T14:56:23;1.90;;;1.80;;
4080;SDS011;2055;50.074;8.436;2023-05-13T14:58:49;2.00;;;1.90;;
4080;SDS011;2055;50.074;8.436;2023-05-13T15:01:15;1.80;;;1.70;;
4080;SDS011;2055;50.074;8.436;2023-05-13T15:03:41;1.70;;;1.60;;
4080;SDS011;2055;50.074;8.436;2023-05-13T15:06:07;1.53;;;1.43;;
4080;SDS011;2055;50.074;8.436;2023-05-13T15:08:34;2.27;;;2.07;;
4080;SDS011;2055;50.074;8.436;2023-05-13T15:11:00;2.77;;;2.57;;
4080;SDS011;2055;50.074;8.436;2023-05-13T15:13:26;1.80;;;1.70;;
4080;SDS011;2055;50.074;8.436;2023-05-13T15:15:53;1.80;;;1.70;;
4080;SDS011;2055;50.074;8.436;2023-05-13T15:18:19;2.20;;;1.50;;
4080;SDS011;2055;50.074;8.436;2023-05-13T15:20:44;2.73;;;2.53;;
4080;SDS011;2055;50.074;8.436;2023-05-13T15:23:10;1.80;;;1.70;;
4080;SDS011;2055;50.074;8.436;2023-05-13T15:25:35;2.63;;;2.47;;
4080;SDS011;2055;50.074;8.436;2023-05-13T15:28:01;1.30;;;1.20;;
4080;SDS011;2055;50.074;8.436;2023-05-13T15:30:27;2.13;;;1.97;;
4080;SDS011;2055;50.074;8.436;2023-05-13T15:32:52;3.13;;;2.60;;
4080;SDS011;2055;50.074;8.436;2023-05-13T15:35:18;1.70;;;1.60;;